createdAt,value
2018-01-28T00:00:28.248Z,9.01
2018-01-28T00:01:37.233Z,9.2
2018-01-28T00:02:46.118Z,9.39
2018-01-28T00:03:55.004Z,9.2
2018-01-28T00:05:03.892Z,8.54
2018-01-28T00:06:12.775Z,8.44
2018-01-28T00:07:21.657Z,8.25
2018-01-28T00:08:30.543Z,7.12
2018-01-28T00:09:39.427Z,6.64
2018-01-28T00:10:48.314Z,6.54
2018-01-28T00:11:57.198Z,6.64
2018-01-28T00:13:06.135Z,6.26
2018-01-28T00:14:15.020Z,5.79
2018-01-28T00:15:23.905Z,6.16
2018-01-28T00:16:32.791Z,5.88
2018-01-28T00:17:41.675Z,6.45
2018-01-28T00:18:50.712Z,5.79
2018-01-28T00:19:59.602Z,5.5
2018-01-28T00:21:08.489Z,5.41
2018-01-28T00:22:17.375Z,5.6
2018-01-28T00:23:26.261Z,5.22
2018-01-28T00:24:35.296Z,5.5
2018-01-28T00:25:44.187Z,5.31
2018-01-28T00:26:53.353Z,5.22
2018-01-28T00:28:02.239Z,4.83
2018-01-28T00:29:11.127Z,4.55
2018-01-28T00:30:20.065Z,4.27
2018-01-28T00:31:28.952Z,3.7
2018-01-28T00:32:37.838Z,3.51
2018-01-28T00:33:47.001Z,3.51
2018-01-28T00:34:55.887Z,3.98
2018-01-28T00:36:05.175Z,3.79
2018-01-28T00:37:14.058Z,4.08
2018-01-28T00:38:22.943Z,4.17
2018-01-28T00:39:31.828Z,4.74
2018-01-28T00:40:40.713Z,5.41
2018-01-28T00:41:49.899Z,4.74
2018-01-28T00:42:58.784Z,4.74
2018-01-28T00:44:07.669Z,4.74
2018-01-28T00:45:16.553Z,4.64
2018-01-28T00:46:25.437Z,4.64
2018-01-28T00:47:34.600Z,4.17
2018-01-28T00:48:43.484Z,4.36
2018-01-28T00:49:52.369Z,4.36
2018-01-28T00:51:01.253Z,4.27
2018-01-28T00:52:10.138Z,3.89
2018-01-28T00:53:19.071Z,3.79
2018-01-28T00:54:27.958Z,3.79
2018-01-28T00:55:36.842Z,3.79
2018-01-28T00:56:45.727Z,3.6
2018-01-28T00:57:54.610Z,3.22
2018-01-28T00:59:03.544Z,3.41
2018-01-28T01:00:12.429Z,3.32
2018-01-28T01:01:21.312Z,3.22
2018-01-28T01:02:30.197Z,3.79
2018-01-28T01:03:39.082Z,3.7
2018-01-28T01:04:48.245Z,3.03
2018-01-28T01:05:57.132Z,2.66
2018-01-28T01:07:06.296Z,3.03
2018-01-28T01:08:15.179Z,2.66
2018-01-28T01:09:24.064Z,2.94
2018-01-28T01:10:33.351Z,2.47
2018-01-28T01:11:42.237Z,2.75
2018-01-28T01:12:51.122Z,2.66
2018-01-28T01:14:00.008Z,2.28
2018-01-28T01:15:09.175Z,1.8
2018-01-28T01:16:18.363Z,1.89
2018-01-28T01:17:27.248Z,1.51
2018-01-28T01:18:36.136Z,1.51
2018-01-28T01:19:45.026Z,1.32
2018-01-28T01:20:54.197Z,1.04
2018-01-28T01:22:03.412Z,1.14
2018-01-28T01:23:12.298Z,0.19
2018-01-28T01:24:21.181Z,0
2018-01-28T01:25:30.070Z,0
2018-01-28T01:26:38.954Z,0
2018-01-28T01:27:47.839Z,0
2018-01-28T01:28:56.724Z,0
2018-01-28T01:30:05.611Z,0
2018-01-28T01:31:14.496Z,0
2018-01-28T01:32:23.383Z,0
2018-01-28T01:33:32.570Z,0
2018-01-28T01:34:41.458Z,0
2018-01-28T01:35:50.345Z,0
2018-01-28T01:36:59.228Z,0
2018-01-28T01:38:08.117Z,0
2018-01-28T01:39:17.429Z,0
2018-01-28T01:40:26.315Z,0
2018-01-28T01:41:35.203Z,0
2018-01-28T01:42:44.091Z,0
2018-01-28T01:43:52.979Z,0
2018-01-28T01:45:02.019Z,0
2018-01-28T01:46:10.906Z,0
2018-01-28T01:47:19.791Z,0
2018-01-28T01:48:28.679Z,0
2018-01-28T01:49:37.565Z,0
2018-01-28T01:50:46.501Z,0
2018-01-28T01:51:55.387Z,0
2018-01-28T01:53:04.276Z,0
2018-01-28T01:54:13.162Z,0
2018-01-28T01:55:22.322Z,0
2018-01-28T01:56:31.511Z,0
2018-01-28T01:57:40.400Z,0
2018-01-28T01:58:49.284Z,0
2018-01-28T01:59:58.170Z,0
2018-01-28T02:01:07.058Z,0
2018-01-28T02:02:15.998Z,0
2018-01-28T02:03:24.884Z,0
2018-01-28T02:04:33.771Z,0
2018-01-28T02:05:42.656Z,0
2018-01-28T02:06:51.541Z,0
2018-01-28T02:08:00.476Z,0
2018-01-28T02:09:09.362Z,0
2018-01-28T02:10:18.248Z,0
2018-01-28T02:11:27.135Z,0
2018-01-28T02:12:36.023Z,0
2018-01-28T02:13:45.109Z,0
2018-01-28T02:14:54.000Z,0
2018-01-28T02:16:03.171Z,0
2018-01-28T02:17:12.058Z,0
2018-01-28T02:18:20.944Z,0
2018-01-28T02:19:29.926Z,0
2018-01-28T02:20:38.814Z,0
2018-01-28T02:21:47.700Z,0
2018-01-28T02:22:56.588Z,0
2018-01-28T02:24:05.479Z,0
2018-01-28T02:25:14.794Z,0
2018-01-28T02:26:23.680Z,0
2018-01-28T02:27:32.568Z,0
2018-01-28T02:28:41.454Z,0
2018-01-28T02:29:50.342Z,0
2018-01-28T02:30:59.430Z,0
2018-01-28T02:32:08.316Z,0
2018-01-28T02:33:17.200Z,0
2018-01-28T02:34:26.088Z,0
2018-01-28T02:35:34.980Z,0
2018-01-28T02:36:43.962Z,0
2018-01-28T02:37:53.139Z,0
2018-01-28T02:39:02.020Z,0
2018-01-28T02:40:10.904Z,0
2018-01-28T02:41:19.792Z,0
2018-01-28T02:42:28.781Z,0
2018-01-28T02:43:37.667Z,0
2018-01-28T02:44:46.553Z,0
2018-01-28T02:45:55.438Z,0
2018-01-28T02:47:04.325Z,0
2018-01-28T02:48:13.510Z,0
2018-01-28T02:49:22.399Z,0
2018-01-28T02:50:31.284Z,0
2018-01-28T02:51:40.168Z,0
2018-01-28T02:52:49.055Z,0
2018-01-28T02:53:58.190Z,0
2018-01-28T02:55:07.077Z,0
2018-01-28T02:56:15.961Z,0
2018-01-28T02:57:24.848Z,0
2018-01-28T02:58:34.010Z,0
2018-01-28T02:59:42.896Z,0
2018-01-28T03:00:51.782Z,0
2018-01-28T03:02:00.670Z,0
2018-01-28T03:03:09.558Z,0
2018-01-28T03:04:18.442Z,0
2018-01-28T03:05:27.478Z,0
2018-01-28T03:06:36.367Z,0
2018-01-28T03:07:45.254Z,0
2018-01-28T03:08:54.191Z,0
2018-01-28T03:10:03.079Z,0
2018-01-28T03:11:12.270Z,0
2018-01-28T03:12:21.159Z,0
2018-01-28T03:13:30.049Z,0
2018-01-28T03:14:39.218Z,0
2018-01-28T03:15:48.102Z,0
2018-01-28T03:16:57.288Z,0
2018-01-28T03:18:06.173Z,0
2018-01-28T03:19:15.060Z,0
2018-01-28T03:20:24.227Z,0
2018-01-28T03:21:33.394Z,0
2018-01-28T03:22:42.678Z,0
2018-01-28T03:23:51.566Z,0
2018-01-28T03:25:00.454Z,0
2018-01-28T03:26:09.340Z,0
2018-01-28T03:27:18.231Z,0
2018-01-28T03:28:27.445Z,0
2018-01-28T03:29:36.329Z,0
2018-01-28T03:30:45.208Z,0
2018-01-28T03:31:54.344Z,0
2018-01-28T03:33:03.202Z,0
2018-01-28T03:34:12.112Z,0
2018-01-28T03:35:21.249Z,0
2018-01-28T03:36:30.107Z,0
2018-01-28T03:37:38.964Z,0
2018-01-28T03:38:47.825Z,0
2018-01-28T03:39:56.684Z,0
2018-01-28T03:41:05.532Z,0
2018-01-28T03:42:14.362Z,0
2018-01-28T03:43:23.190Z,0
2018-01-28T03:44:32.018Z,0
2018-01-28T03:45:41.097Z,0
2018-01-28T03:46:49.924Z,0
2018-01-28T03:47:58.755Z,0
2018-01-28T03:49:07.858Z,0
2018-01-28T03:50:16.688Z,0
2018-01-28T03:51:25.768Z,0
2018-01-28T03:52:34.880Z,0
2018-01-28T03:53:43.714Z,0
2018-01-28T03:54:52.541Z,0
2018-01-28T03:56:01.369Z,0
2018-01-28T03:57:10.198Z,0
2018-01-28T03:58:19.303Z,0
2018-01-28T03:59:28.139Z,0
2018-01-28T04:00:36.960Z,0
2018-01-28T04:01:45.793Z,0
2018-01-28T04:02:54.722Z,0
2018-01-28T04:04:03.552Z,0
2018-01-28T04:05:12.380Z,0
2018-01-28T04:06:21.210Z,0
2018-01-28T04:07:30.041Z,0
2018-01-28T04:08:39.025Z,0
2018-01-28T04:09:47.848Z,0
2018-01-28T04:10:56.675Z,0
2018-01-28T04:12:05.507Z,0
2018-01-28T04:13:14.336Z,0
2018-01-28T04:14:23.360Z,0
2018-01-28T04:15:32.142Z,0
2018-01-28T04:16:40.972Z,0
2018-01-28T04:17:49.799Z,0
2018-01-28T04:18:58.632Z,0
2018-01-28T04:20:07.736Z,0
2018-01-28T04:21:16.569Z,0
2018-01-28T04:22:25.397Z,0
2018-01-28T04:23:34.226Z,0
2018-01-28T04:24:43.330Z,0
2018-01-28T04:25:52.312Z,0
2018-01-28T04:27:01.143Z,0
2018-01-28T04:28:09.978Z,0
2018-01-28T04:29:18.801Z,0
2018-01-28T04:30:27.638Z,0
2018-01-28T04:31:36.513Z,0
2018-01-28T04:32:45.344Z,0
2018-01-28T04:33:54.176Z,0
2018-01-28T04:35:03.005Z,0
2018-01-28T04:36:12.107Z,0
2018-01-28T04:37:21.261Z,0
2018-01-28T04:38:30.090Z,0
2018-01-28T04:39:38.921Z,0
2018-01-28T04:40:47.751Z,0
2018-01-28T04:41:56.578Z,0
2018-01-28T04:43:05.954Z,0
2018-01-28T04:44:14.785Z,0
2018-01-28T04:45:23.892Z,0
2018-01-28T04:46:32.724Z,0
2018-01-28T04:47:41.554Z,0
2018-01-28T04:48:50.964Z,0
2018-01-28T04:49:59.792Z,0
2018-01-28T04:51:08.620Z,0
2018-01-28T04:52:17.724Z,0
2018-01-28T04:53:26.557Z,0
2018-01-28T04:54:35.712Z,0
2018-01-28T04:55:44.541Z,0
2018-01-28T04:56:53.371Z,0
2018-01-28T04:58:02.476Z,0
2018-01-28T04:59:11.307Z,0
2018-01-28T05:00:20.136Z,0
2018-01-28T05:01:28.965Z,0
2018-01-28T05:02:37.798Z,0
2018-01-28T05:03:46.626Z,0
2018-01-28T05:04:55.454Z,0
2018-01-28T05:06:04.287Z,0
2018-01-28T05:07:13.116Z,0
2018-01-28T05:08:21.947Z,0
2018-01-28T05:09:30.778Z,0
2018-01-28T05:10:39.605Z,0
2018-01-28T05:11:49.010Z,0
2018-01-28T05:12:57.839Z,0
2018-01-28T05:14:06.669Z,0
2018-01-28T05:15:15.500Z,0
2018-01-28T05:16:24.334Z,0
2018-01-28T05:17:33.465Z,0
2018-01-28T05:18:42.293Z,0
2018-01-28T05:19:51.124Z,0
2018-01-28T05:20:59.955Z,0
2018-01-28T05:22:08.784Z,0
2018-01-28T05:23:17.763Z,0
2018-01-28T05:24:26.594Z,0
2018-01-28T05:25:35.426Z,0
2018-01-28T05:26:44.257Z,0
2018-01-28T05:27:53.358Z,0
2018-01-28T05:29:02.288Z,0
2018-01-28T05:30:11.117Z,0
2018-01-28T05:31:19.948Z,0
2018-01-28T05:32:28.780Z,0
2018-01-28T05:33:37.610Z,0
2018-01-28T05:34:46.740Z,0
2018-01-28T05:35:55.572Z,0
2018-01-28T05:37:04.404Z,0
2018-01-28T05:38:13.236Z,0
2018-01-28T05:39:22.070Z,0
2018-01-28T05:40:31.204Z,0
2018-01-28T05:41:40.032Z,0
2018-01-28T05:42:48.862Z,0
2018-01-28T05:43:57.696Z,0
2018-01-28T05:45:06.526Z,0
2018-01-28T05:46:15.459Z,0
2018-01-28T05:47:24.289Z,0
2018-01-28T05:48:33.120Z,0
2018-01-28T05:49:41.950Z,0
2018-01-28T05:50:50.782Z,0
2018-01-28T05:51:59.611Z,0
2018-01-28T05:53:08.444Z,0
2018-01-28T05:54:17.278Z,0
2018-01-28T05:55:26.107Z,0
2018-01-28T05:56:34.938Z,0
2018-01-28T05:57:43.769Z,0
2018-01-28T05:58:52.599Z,0
2018-01-28T06:00:01.430Z,0
2018-01-28T06:01:10.261Z,0
2018-01-28T06:02:19.366Z,0
2018-01-28T06:03:28.196Z,0
2018-01-28T06:04:37.025Z,0
2018-01-28T06:05:45.855Z,0
2018-01-28T06:06:54.687Z,0
2018-01-28T06:08:03.517Z,0
2018-01-28T06:09:12.728Z,0
2018-01-28T06:10:21.559Z,0
2018-01-28T06:11:30.389Z,0
2018-01-28T06:12:39.502Z,0
2018-01-28T06:13:48.330Z,0
2018-01-28T06:14:57.366Z,0
2018-01-28T06:16:06.191Z,0
2018-01-28T06:17:15.019Z,0
2018-01-28T06:18:23.849Z,0
2018-01-28T06:19:32.689Z,0
2018-01-28T06:20:42.100Z,0
2018-01-28T06:21:50.932Z,0
2018-01-28T06:22:59.762Z,0
2018-01-28T06:24:08.591Z,0
2018-01-28T06:25:17.421Z,0
2018-01-28T06:26:26.352Z,0
2018-01-28T06:27:35.182Z,0
2018-01-28T06:28:44.013Z,0
2018-01-28T06:29:52.842Z,0
2018-01-28T06:31:01.676Z,0
2018-01-28T06:32:10.651Z,0
2018-01-28T06:33:19.488Z,0
2018-01-28T06:34:28.314Z,0
2018-01-28T06:35:37.146Z,0
2018-01-28T06:36:45.973Z,0
2018-01-28T06:37:54.947Z,0
2018-01-28T06:39:03.734Z,0
2018-01-28T06:40:12.565Z,0
2018-01-28T06:41:21.400Z,0
2018-01-28T06:42:30.230Z,0
2018-01-28T06:43:39.057Z,0
2018-01-28T06:44:47.889Z,0
2018-01-28T06:45:56.720Z,0
2018-01-28T06:47:05.553Z,0
2018-01-28T06:48:14.382Z,0
2018-01-28T06:49:23.361Z,0
2018-01-28T06:50:32.194Z,0
2018-01-28T06:51:41.297Z,0
2018-01-28T06:52:50.127Z,0
2018-01-28T06:53:58.960Z,0
2018-01-28T06:55:08.091Z,0
2018-01-28T06:56:16.922Z,0
2018-01-28T06:57:25.751Z,0
2018-01-28T06:58:34.579Z,0
2018-01-28T06:59:43.410Z,0
2018-01-28T07:00:52.239Z,0
2018-01-28T07:02:01.069Z,0
2018-01-28T07:03:09.900Z,0
2018-01-28T07:04:18.731Z,0
2018-01-28T07:05:27.561Z,0
2018-01-28T07:06:36.392Z,0
2018-01-28T07:07:45.220Z,0
2018-01-28T07:08:54.053Z,0
2018-01-28T07:10:02.886Z,0
2018-01-28T07:11:11.988Z,0
2018-01-28T07:12:20.971Z,0
2018-01-28T07:13:29.799Z,0
2018-01-28T07:14:38.630Z,0
2018-01-28T07:15:47.461Z,0
2018-01-28T07:16:56.341Z,0
2018-01-28T07:18:05.475Z,0
2018-01-28T07:19:14.303Z,0
2018-01-28T07:20:23.133Z,0
2018-01-28T07:21:31.967Z,0
2018-01-28T07:22:40.801Z,0
2018-01-28T07:23:49.730Z,0
2018-01-28T07:24:58.560Z,0
2018-01-28T07:26:07.391Z,0
2018-01-28T07:27:16.222Z,0
2018-01-28T07:28:25.053Z,0
2018-01-28T07:29:33.886Z,0
2018-01-28T07:30:42.718Z,0
2018-01-28T07:31:51.550Z,0
2018-01-28T07:33:00.582Z,0
2018-01-28T07:34:09.415Z,0
2018-01-28T07:35:18.573Z,0
2018-01-28T07:36:27.404Z,0
2018-01-28T07:37:36.234Z,0
2018-01-28T07:38:45.065Z,0
2018-01-28T07:39:53.948Z,0
2018-01-28T07:41:02.781Z,0
2018-01-28T07:42:11.611Z,0
2018-01-28T07:43:20.444Z,0
2018-01-28T07:44:29.274Z,0
2018-01-28T07:45:38.103Z,0
2018-01-28T07:46:47.034Z,0
2018-01-28T07:47:55.866Z,0
2018-01-28T07:49:04.699Z,0
2018-01-28T07:50:13.533Z,0
2018-01-28T07:51:22.364Z,0
2018-01-28T07:52:31.345Z,0
2018-01-28T07:53:40.176Z,0
2018-01-28T07:54:49.005Z,0
2018-01-28T07:55:57.839Z,0
2018-01-28T07:57:06.670Z,0
2018-01-28T07:58:15.829Z,0
2018-01-28T07:59:24.632Z,0
2018-01-28T08:00:33.461Z,0
2018-01-28T08:01:42.294Z,0
2018-01-28T08:02:51.125Z,0
2018-01-28T08:04:00.259Z,0
2018-01-28T08:05:09.090Z,0
2018-01-28T08:06:17.917Z,0
2018-01-28T08:07:26.748Z,0
2018-01-28T08:08:35.583Z,0
2018-01-28T08:09:44.515Z,0
2018-01-28T08:10:53.345Z,0
2018-01-28T08:12:02.183Z,0
2018-01-28T08:13:11.015Z,0
2018-01-28T08:14:19.845Z,0
2018-01-28T08:15:28.928Z,0
2018-01-28T08:16:37.758Z,0
2018-01-28T08:17:46.594Z,0
2018-01-28T08:18:55.422Z,0
2018-01-28T08:20:04.253Z,0
2018-01-28T08:21:13.186Z,0
2018-01-28T08:22:22.015Z,0
2018-01-28T08:23:31.117Z,0
2018-01-28T08:24:39.949Z,0
2018-01-28T08:25:48.781Z,0
2018-01-28T08:26:57.919Z,0
2018-01-28T08:28:06.751Z,0
2018-01-28T08:29:15.863Z,0
2018-01-28T08:30:24.693Z,0
2018-01-28T08:31:33.525Z,0
2018-01-28T08:32:42.358Z,0
2018-01-28T08:33:51.189Z,0
2018-01-28T08:35:00.024Z,0
2018-01-28T08:36:08.855Z,0
2018-01-28T08:37:17.687Z,0
2018-01-28T08:38:26.519Z,0
2018-01-28T08:39:35.900Z,2.09
2018-01-28T08:40:44.734Z,1.42
2018-01-28T08:41:53.566Z,1.42
2018-01-28T08:43:02.402Z,2
2018-01-28T08:44:11.235Z,3.61
2018-01-28T08:45:20.068Z,5.04
2018-01-28T08:46:28.901Z,7.79
2018-01-28T08:47:37.736Z,5.8
2018-01-28T08:48:46.568Z,6.46
2018-01-28T08:49:55.400Z,6.84
2018-01-28T08:51:04.234Z,7.51
2018-01-28T08:52:13.066Z,8.56
2018-01-28T08:53:21.898Z,9.5
2018-01-28T08:54:30.734Z,9.03
2018-01-28T08:55:39.567Z,9.32
2018-01-28T08:56:48.398Z,10.08
2018-01-28T08:57:57.229Z,11.51
2018-01-28T08:59:06.062Z,10.46
2018-01-28T09:00:15.170Z,10.75
2018-01-28T09:01:24.003Z,14.93
2018-01-28T09:02:32.835Z,10.75
2018-01-28T09:03:41.821Z,15.03
2018-01-28T09:04:50.654Z,17.02
2018-01-28T09:05:59.485Z,16.93
2018-01-28T09:07:08.315Z,16.46
2018-01-28T09:08:17.149Z,17.6
2018-01-28T09:09:26.130Z,16.83
2018-01-28T09:10:34.965Z,16.54
2018-01-28T09:11:43.800Z,15.02
2018-01-28T09:12:52.632Z,17.58
2018-01-28T09:14:01.466Z,18.63
2018-01-28T09:15:10.496Z,19.3
2018-01-28T09:16:19.329Z,22.06
2018-01-28T09:17:28.162Z,20.45
2018-01-28T09:18:36.994Z,19.31
2018-01-28T09:19:45.825Z,21.31
2018-01-28T09:20:54.808Z,21.59
2018-01-28T09:22:03.641Z,21.12
2018-01-28T09:23:12.474Z,21.59
2018-01-28T09:24:21.307Z,21.12
2018-01-28T09:25:30.142Z,20.83
2018-01-28T09:26:39.375Z,18.82
2018-01-28T09:27:48.212Z,17.88
2018-01-28T09:28:57.317Z,18.84
2018-01-28T09:30:06.150Z,22.35
2018-01-28T09:31:14.981Z,21.88
2018-01-28T09:32:24.388Z,21.97
2018-01-28T09:33:33.219Z,21.59
2018-01-28T09:34:42.051Z,23.11
2018-01-28T09:35:50.884Z,22.35
2018-01-28T09:36:59.716Z,23.88
2018-01-28T09:38:08.699Z,23.21
2018-01-28T09:39:17.533Z,23.78
2018-01-28T09:40:26.396Z,21.97
2018-01-28T09:41:35.474Z,25.11
2018-01-28T09:42:44.586Z,25.68
2018-01-28T09:43:53.418Z,27.68
2018-01-28T09:45:02.251Z,31.77
2018-01-28T09:46:11.081Z,28.34
2018-01-28T09:47:19.915Z,30.63
2018-01-28T09:48:28.748Z,29.86
2018-01-28T09:49:37.640Z,30.63
2018-01-28T09:50:46.480Z,30.73
2018-01-28T09:51:55.315Z,37.86
2018-01-28T09:53:04.151Z,38.62
2018-01-28T09:54:12.997Z,37.29
2018-01-28T09:55:22.403Z,39.57
2018-01-28T09:56:31.236Z,38.9
2018-01-28T09:57:40.070Z,39.38
2018-01-28T09:58:48.936Z,45
2018-01-28T09:59:57.736Z,45.28
2018-01-28T10:01:06.990Z,47.66
2018-01-28T10:02:15.822Z,44.52
2018-01-28T10:03:24.653Z,45.95
2018-01-28T10:04:33.486Z,48.61
2018-01-28T10:05:42.320Z,49.46
2018-01-28T10:06:51.256Z,48.51
2018-01-28T10:08:00.090Z,50.32
2018-01-28T10:09:09.198Z,50.42
2018-01-28T10:10:18.034Z,51.56
2018-01-28T10:11:27.140Z,51.37
2018-01-28T10:12:35.977Z,52.22
2018-01-28T10:13:45.084Z,50.23
2018-01-28T10:14:53.917Z,49.46
2018-01-28T10:16:02.750Z,54.03
2018-01-28T10:17:11.588Z,52.41
2018-01-28T10:18:20.470Z,53.08
2018-01-28T10:19:29.302Z,51.75
2018-01-28T10:20:38.137Z,54.22
2018-01-28T10:21:46.972Z,55.74
2018-01-28T10:22:55.805Z,51.46
2018-01-28T10:24:04.638Z,56.6
2018-01-28T10:25:13.473Z,57.17
2018-01-28T10:26:22.308Z,57.39
2018-01-28T10:27:31.141Z,58.22
2018-01-28T10:28:39.977Z,54.41
2018-01-28T10:29:48.860Z,58.5
2018-01-28T10:30:57.693Z,57.65
2018-01-28T10:32:06.527Z,58.91
2018-01-28T10:33:15.360Z,59.1
2018-01-28T10:34:24.199Z,57.29
2018-01-28T10:35:33.076Z,61
2018-01-28T10:36:41.911Z,59.96
2018-01-28T10:37:50.749Z,60.82
2018-01-28T10:39:31.643Z,59.96
2018-01-28T10:40:40.628Z,59.77
2018-01-28T10:41:49.460Z,61.29
2018-01-28T10:42:58.293Z,64.15
2018-01-28T10:44:07.127Z,64.72
2018-01-28T10:45:16.019Z,66.72
2018-01-28T10:46:24.947Z,65.77
2018-01-28T10:47:34.053Z,60.72
2018-01-28T10:48:43.168Z,63.39
2018-01-28T10:49:52.003Z,64.24
2018-01-28T10:51:00.839Z,66.72
2018-01-28T10:52:09.675Z,65.67
2018-01-28T10:53:18.508Z,65.1
2018-01-28T10:54:27.350Z,67.38
2018-01-28T10:55:36.195Z,69.1
2018-01-28T10:56:45.027Z,67.57
2018-01-28T10:57:53.910Z,68.15
2018-01-28T10:59:03.017Z,67.47
2018-01-28T11:00:11.850Z,67.16
2018-01-28T11:01:20.958Z,64.34
2018-01-28T11:02:29.794Z,68.71
2018-01-28T11:03:39.027Z,67.16
2018-01-28T11:04:47.859Z,68.01
2018-01-28T11:05:56.694Z,67.63
2018-01-28T11:07:05.537Z,66.3
2018-01-28T11:08:14.370Z,67.25
2018-01-28T11:09:23.253Z,67.25
2018-01-28T11:10:32.361Z,67.07
2018-01-28T11:11:41.194Z,67.73
2018-01-28T11:12:50.028Z,67.25
2018-01-28T11:13:58.860Z,68.77
2018-01-28T11:15:07.691Z,68.21
2018-01-28T11:16:16.793Z,67.54
2018-01-28T11:17:25.634Z,67.16
2018-01-28T11:18:34.458Z,66.87
2018-01-28T11:19:43.563Z,66.87
2018-01-28T11:20:52.556Z,67.67
2018-01-28T11:22:01.387Z,68.59
2018-01-28T11:23:10.218Z,69.44
2018-01-28T11:24:19.051Z,63.57
2018-01-28T11:25:27.883Z,68.62
2018-01-28T11:26:36.991Z,68.9
2018-01-28T11:27:45.821Z,69.95
2018-01-28T11:28:54.930Z,69.1
2018-01-28T11:30:03.764Z,69.67
2018-01-28T11:31:12.595Z,69.76
2018-01-28T11:32:21.427Z,69
2018-01-28T11:33:30.533Z,68.71
2018-01-28T11:34:39.383Z,68.05
2018-01-28T11:35:48.216Z,70.14
2018-01-28T11:36:57.051Z,69.76
2018-01-28T11:38:05.930Z,65.67
2018-01-28T11:39:15.113Z,69.67
2018-01-28T11:40:24.229Z,69.38
2018-01-28T11:41:33.063Z,67.57
2018-01-28T11:42:41.897Z,70.14
2018-01-28T11:43:50.731Z,70.72
2018-01-28T11:44:59.564Z,70.9
2018-01-28T11:46:08.397Z,71.57
2018-01-28T11:47:17.505Z,70.81
2018-01-28T11:48:26.337Z,70.9
2018-01-28T11:49:35.169Z,71
2018-01-28T11:50:44.002Z,72.14
2018-01-28T11:51:52.836Z,71.76
2018-01-28T11:53:01.671Z,71.86
2018-01-28T11:54:10.504Z,75.38
2018-01-28T11:55:19.339Z,73.1
2018-01-28T11:56:28.172Z,72.14
2018-01-28T11:57:37.069Z,74.24
2018-01-28T11:58:46.179Z,75.89
2018-01-28T11:59:55.011Z,75.76
2018-01-28T12:01:03.844Z,75.32
2018-01-28T12:02:12.953Z,76.18
2018-01-28T12:03:21.787Z,76.18
2018-01-28T12:04:30.623Z,75.89
2018-01-28T12:05:39.456Z,77.03
2018-01-28T12:06:48.289Z,75.7
2018-01-28T12:07:57.123Z,78.17
2018-01-28T12:09:06.109Z,76.56
2018-01-28T12:10:14.942Z,76.46
2018-01-28T12:11:23.775Z,77.51
2018-01-28T12:12:32.608Z,77.98
2018-01-28T12:13:41.446Z,77.22
2018-01-28T12:14:50.583Z,76.37
2018-01-28T12:15:59.416Z,77.89
2018-01-28T12:17:08.252Z,78.46
2018-01-28T12:18:17.087Z,77.8
2018-01-28T12:19:25.923Z,76.37
2018-01-28T12:20:34.960Z,78.17
2018-01-28T12:21:43.793Z,78.94
2018-01-28T12:22:52.627Z,79.22
2018-01-28T12:24:01.463Z,79.13
2018-01-28T12:25:10.298Z,78.08
2018-01-28T12:26:19.387Z,76.75
2018-01-28T12:27:28.492Z,75.42
2018-01-28T12:28:37.327Z,77.98
2018-01-28T12:29:46.160Z,78.46
2018-01-28T12:30:55.281Z,79.22
2018-01-28T12:32:04.175Z,76.08
2018-01-28T12:33:13.016Z,79.51
2018-01-28T12:34:21.846Z,78.75
2018-01-28T12:35:30.680Z,79.89
2018-01-28T12:36:39.514Z,77.7
2018-01-28T12:37:48.502Z,79.7
2018-01-28T12:38:57.336Z,80.65
2018-01-28T12:40:06.171Z,78.46
2018-01-28T12:41:15.006Z,79.8
2018-01-28T12:42:23.842Z,79.89
2018-01-28T12:43:32.822Z,78.08
2018-01-28T12:44:41.656Z,80.36
2018-01-28T12:45:50.519Z,80.65
2018-01-28T12:46:59.354Z,79.89
2018-01-28T12:48:08.190Z,80.55
2018-01-28T12:49:17.024Z,80.46
2018-01-28T12:50:25.856Z,81.6
2018-01-28T12:51:34.692Z,78.75
2018-01-28T12:52:43.525Z,81.23
2018-01-28T12:53:52.357Z,80.94
2018-01-28T12:55:01.292Z,80.75
2018-01-28T12:56:10.127Z,80.36
2018-01-28T12:57:18.961Z,80.18
2018-01-28T12:58:27.794Z,79.7
2018-01-28T12:59:36.626Z,81.32
2018-01-28T13:00:45.609Z,80.36
2018-01-28T13:01:54.443Z,79.6
2018-01-28T13:03:03.275Z,81.13
2018-01-28T13:04:12.110Z,80.46
2018-01-28T13:05:20.948Z,79.99
2018-01-28T13:06:30.330Z,80.75
2018-01-28T13:07:39.163Z,81.41
2018-01-28T13:08:47.997Z,80.94
2018-01-28T13:09:56.829Z,81.6
2018-01-28T13:11:05.660Z,79.6
2018-01-28T13:12:14.642Z,81.23
2018-01-28T13:13:23.475Z,80.18
2018-01-28T13:14:32.310Z,81.23
2018-01-28T13:15:41.144Z,81.32
2018-01-28T13:16:49.976Z,81.13
2018-01-28T13:17:58.859Z,81.13
2018-01-28T13:19:07.979Z,79.22
2018-01-28T13:20:16.814Z,80.75
2018-01-28T13:21:25.648Z,80.55
2018-01-28T13:22:34.491Z,80.55
2018-01-28T13:23:43.627Z,81.79
2018-01-28T13:24:52.462Z,81.6
2018-01-28T13:26:01.296Z,81.13
2018-01-28T13:27:10.403Z,80.84
2018-01-28T13:28:19.236Z,80.46
2018-01-28T13:29:28.219Z,80.75
2018-01-28T13:30:37.057Z,80.55
2018-01-28T13:31:45.887Z,81.7
2018-01-28T13:32:55.002Z,81.13
2018-01-28T13:34:03.854Z,81.41
2018-01-28T13:35:13.264Z,81.51
2018-01-28T13:36:22.098Z,81.89
2018-01-28T13:37:30.984Z,81.6
2018-01-28T13:38:39.858Z,80.08
2018-01-28T13:39:48.799Z,81.41
2018-01-28T13:40:58.056Z,81.6
2018-01-28T13:42:07.166Z,81.37
2018-01-28T13:43:16.303Z,81.37
2018-01-28T13:44:25.394Z,81.28
2018-01-28T13:45:34.313Z,81.23
2018-01-28T13:46:43.248Z,80.99
2018-01-28T13:47:52.083Z,81.13
2018-01-28T13:49:00.916Z,81.6
2018-01-28T13:50:09.751Z,81.28
2018-01-28T13:51:18.585Z,80.13
2018-01-28T13:52:27.570Z,81.32
2018-01-28T13:53:36.405Z,81.09
2018-01-28T13:54:45.242Z,81.32
2018-01-28T13:55:54.077Z,81.47
2018-01-28T13:57:02.913Z,81.28
2018-01-28T13:58:11.897Z,81.37
2018-01-28T13:59:21.007Z,81.18
2018-01-28T14:00:29.843Z,80.99
2018-01-28T14:01:38.677Z,80.84
2018-01-28T14:02:47.514Z,80.33
2018-01-28T14:03:56.360Z,78.14
2018-01-28T14:05:05.201Z,80.18
2018-01-28T14:06:14.035Z,76.14
2018-01-28T14:07:22.870Z,79.51
2018-01-28T14:08:31.739Z,78.99
2018-01-28T14:09:40.643Z,79.28
2018-01-28T14:10:49.477Z,79.47
2018-01-28T14:11:58.312Z,79.47
2018-01-28T14:13:07.147Z,79.09
2018-01-28T14:14:15.980Z,78.14
2018-01-28T14:15:24.964Z,78.04
2018-01-28T14:16:33.801Z,77.37
2018-01-28T14:17:42.634Z,77.37
2018-01-28T14:18:51.469Z,77.95
2018-01-28T14:20:00.319Z,76.81
2018-01-28T14:21:09.462Z,76.04
2018-01-28T14:22:18.306Z,76.71
2018-01-28T14:23:27.141Z,75.76
2018-01-28T14:24:35.975Z,76.71
2018-01-28T14:25:44.810Z,76.04
2018-01-28T14:26:53.649Z,75.57
2018-01-28T14:28:02.484Z,75.47
2018-01-28T14:29:11.319Z,76.42
2018-01-28T14:30:20.151Z,75.85
2018-01-28T14:31:28.990Z,76.81
2018-01-28T14:32:37.872Z,76.52
2018-01-28T14:33:46.705Z,75.47
2018-01-28T14:34:55.540Z,76.71
2018-01-28T14:36:04.374Z,76.42
2018-01-28T14:37:13.207Z,76.81
2018-01-28T14:38:22.142Z,76.42
2018-01-28T14:39:30.978Z,76.23
2018-01-28T14:40:39.826Z,76.9
2018-01-28T14:41:48.670Z,77.19
2018-01-28T14:42:57.510Z,77.66
2018-01-28T14:44:07.044Z,77.28
2018-01-28T14:45:16.150Z,77.37
2018-01-28T14:46:57.049Z,77.37
2018-01-28T14:48:05.896Z,77.56
2018-01-28T14:49:15.132Z,77.19
2018-01-28T14:50:23.967Z,77.37
2018-01-28T14:51:32.800Z,77.28
2018-01-28T14:52:41.909Z,77.95
2018-01-28T14:53:50.744Z,78.04
2018-01-28T14:54:59.778Z,77.76
2018-01-28T14:56:08.614Z,77.66
2018-01-28T14:57:17.447Z,77.37
2018-01-28T14:58:26.281Z,77.76
2018-01-28T14:59:35.115Z,77
2018-01-28T15:00:44.540Z,77.95
2018-01-28T15:01:53.374Z,77.56
2018-01-28T15:03:02.209Z,78.14
2018-01-28T15:04:11.046Z,78.14
2018-01-28T15:05:19.886Z,78.04
2018-01-28T15:06:28.819Z,78.42
2018-01-28T15:07:37.653Z,78.42
2018-01-28T15:08:46.490Z,77.95
2018-01-28T15:09:55.323Z,78.08
2018-01-28T15:11:04.157Z,77.95
2018-01-28T15:12:13.145Z,77.56
2018-01-28T15:13:21.995Z,77.28
2018-01-28T15:14:30.830Z,77.66
2018-01-28T15:15:39.673Z,78.42
2018-01-28T15:16:48.788Z,77.47
2018-01-28T15:17:57.672Z,77.95
2018-01-28T15:19:06.506Z,77.76
2018-01-28T15:20:15.338Z,77.37
2018-01-28T15:21:24.173Z,78.08
2018-01-28T15:22:33.006Z,76.9
2018-01-28T15:23:41.991Z,77.28
2018-01-28T15:24:50.822Z,76.23
2018-01-28T15:25:59.656Z,75.57
2018-01-28T15:27:08.493Z,74.99
2018-01-28T15:28:17.325Z,74.24
2018-01-28T15:29:26.211Z,73.66
2018-01-28T15:30:35.043Z,72.71
2018-01-28T15:31:43.878Z,72.14
2018-01-28T15:32:52.711Z,71.47
2018-01-28T15:34:01.545Z,70.52
2018-01-28T15:35:10.479Z,70.05
2018-01-28T15:36:19.312Z,68.62
2018-01-28T15:37:28.150Z,66.91
2018-01-28T15:38:36.979Z,66.24
2018-01-28T15:39:45.812Z,65
2018-01-28T15:40:54.696Z,63.29
2018-01-28T15:42:03.530Z,62.34
2018-01-28T15:43:12.363Z,60.44
2018-01-28T15:44:21.200Z,58.91
2018-01-28T15:45:30.035Z,57.29
2018-01-28T15:46:38.868Z,54.44
2018-01-28T15:47:47.976Z,52.92
2018-01-28T15:48:56.808Z,52.06
2018-01-28T15:50:05.643Z,50.54